sensor_id;sensor_type;location;lat;lon;timestamp;pressure;altitude;pressure_sealevel;temperature;humidity
50550;BME280;36505;52.512;13.460;2022-10-17T00:00:28;101742.72;;;13.66;79.39
50550;BME280;36505;52.512;13.460;2022-10-17T00:02:54;101746.09;;;13.68;79.53
50550;BME280;36505;52.512;13.460;2022-10-17T00:05:20;101740.13;;;13.71;79.17
50550;BME280;36505;52.512;13.460;2022-10-17T00:07:46;101741.19;;;13.70;78.95
50550;BME280;36505;52.512;13.460;2022-10-17T00:10:11;101742.38;;;13.74;79.21
50550;BME280;36505;52.512;13.460;2022-10-17T00:12:36;101736.63;;;13.76;79.23
50550;BME280;36505;52.512;13.460;2022-10-17T00:15:04;101745.00;;;13.81;78.74
50550;BME280;36505;52.512;13.460;2022-10-17T00:17:31;101747.41;;;13.77;78.66
50550;BME280;36505;52.512;13.460;2022-10-17T00:20:00;101747.63;;;13.76;78.80
50550;BME280;36505;52.512;13.460;2022-10-17T00:22:26;101741.91;;;13.77;78.86
50550;BME280;36505;52.512;13.460;2022-10-17T00:24:51;101725.97;;;13.79;78.80
50550;BME280;36505;52.512;13.460;2022-10-17T00:27:16;101718.06;;;13.83;78.89
50550;BME280;36505;52.512;13.460;2022-10-17T00:29:42;101726.31;;;13.83;79.15
50550;BME280;36505;52.512;13.460;2022-10-17T00:32:07;101731.00;;;13.82;79.19
50550;BME280;36505;52.512;13.460;2022-10-17T00:34:33;101745.81;;;13.81;79.10
50550;BME280;36505;52.512;13.460;2022-10-17T00:36:58;101743.81;;;13.77;79.20
50550;BME280;36505;52.512;13.460;2022-10-17T00:39:23;101742.75;;;13.78;79.46
50550;BME280;36505;52.512;13.460;2022-10-17T00:41:49;101730.03;;;13.77;79.46
50550;BME280;36505;52.512;13.460;2022-10-17T00:46:55;101724.06;;;13.68;80.49
50550;BME280;36505;52.512;13.460;2022-10-17T00:49:22;101730.88;;;13.66;80.54
50550;BME280;36505;52.512;13.460;2022-10-17T00:51:52;101733.19;;;13.57;80.72
50550;BME280;36505;52.512;13.460;2022-10-17T00:54:22;101730.06;;;13.54;81.26
50550;BME280;36505;52.512;13.460;2022-10-17T00:56:50;101737.25;;;13.55;81.20
50550;BME280;36505;52.512;13.460;2022-10-17T00:59:18;101748.13;;;13.61;81.34
50550;BME280;36505;52.512;13.460;2022-10-17T01:01:55;101743.94;;;13.59;81.35
50550;BME280;36505;52.512;13.460;2022-10-17T01:04:21;101740.34;;;13.58;81.61
50550;BME280;36505;52.512;13.460;2022-10-17T01:06:47;101743.81;;;13.65;81.46
50550;BME280;36505;52.512;13.460;2022-10-17T01:09:12;101746.31;;;13.67;81.45
50550;BME280;36505;52.512;13.460;2022-10-17T01:14:51;101735.91;;;13.69;81.90
50550;BME280;36505;52.512;13.460;2022-10-17T01:17:23;101719.41;;;13.69;82.18
50550;BME280;36505;52.512;13.460;2022-10-17T01:20:22;101729.47;;;13.63;83.04
50550;BME280;36505;52.512;13.460;2022-10-17T01:26:18;101715.97;;;13.50;84.22
50550;BME280;36505;52.512;13.460;2022-10-17T01:31:58;101712.50;;;13.43;85.74
50550;BME280;36505;52.512;13.460;2022-10-17T01:34:34;101708.53;;;13.39;85.82
50550;BME280;36505;52.512;13.460;2022-10-17T01:39:41;101708.41;;;13.34;86.66
50550;BME280;36505;52.512;13.460;2022-10-17T01:42:18;101710.09;;;13.35;86.40
50550;BME280;36505;52.512;13.460;2022-10-17T01:45:01;101716.19;;;13.37;86.48
50550;BME280;36505;52.512;13.460;2022-10-17T01:47:30;101709.59;;;13.38;86.64
50550;BME280;36505;52.512;13.460;2022-10-17T01:50:02;101713.19;;;13.38;87.08
50550;BME280;36505;52.512;13.460;2022-10-17T01:52:34;101701.84;;;13.35;87.38
50550;BME280;36505;52.512;13.460;2022-10-17T01:55:22;101700.16;;;13.34;87.47
50550;BME280;36505;52.512;13.460;2022-10-17T01:57:54;101705.91;;;13.32;87.42
50550;BME280;36505;52.512;13.460;2022-10-17T02:00:22;101697.41;;;13.34;87.54
50550;BME280;36505;52.512;13.460;2022-10-17T02:02:51;101701.22;;;13.33;88.04
50550;BME280;36505;52.512;13.460;2022-10-17T02:05:20;101705.06;;;13.32;88.66
50550;BME280;36505;52.512;13.460;2022-10-17T02:07:48;101700.63;;;13.31;88.87
50550;BME280;36505;52.512;13.460;2022-10-17T02:10:20;101707.22;;;13.30;88.92
50550;BME280;36505;52.512;13.460;2022-10-17T02:21:30;101706.03;;;13.14;91.74
50550;BME280;36505;52.512;13.460;2022-10-17T02:26:52;101699.66;;;13.02;92.95
50550;BME280;36505;52.512;13.460;2022-10-17T02:29:28;101705.25;;;12.95;93.26
50550;BME280;36505;52.512;13.460;2022-10-17T02:32:13;101701.91;;;12.93;93.44
50550;BME280;36505;52.512;13.460;2022-10-17T02:34:45;101702.97;;;12.92;93.41
50550;BME280;36505;52.512;13.460;2022-10-17T02:37:14;101698.78;;;12.90;93.23
50550;BME280;36505;52.512;13.460;2022-10-17T02:39:41;101695.06;;;12.84;93.66
50550;BME280;36505;52.512;13.460;2022-10-17T02:42:09;101696.28;;;12.88;93.45
50550;BME280;36505;52.512;13.460;2022-10-17T02:44:37;101694.00;;;12.85;93.48
50550;BME280;36505;52.512;13.460;2022-10-17T02:50:10;101699.72;;;12.84;93.48
50550;BME280;36505;52.512;13.460;2022-10-17T02:52:41;101689.56;;;12.84;93.74
50550;BME280;36505;52.512;13.460;2022-10-17T02:55:15;101690.63;;;12.83;93.54
50550;BME280;36505;52.512;13.460;2022-10-17T02:57:49;101686.81;;;12.84;93.49
50550;BME280;36505;52.512;13.460;2022-10-17T03:00:16;101687.06;;;12.83;93.65
50550;BME280;36505;52.512;13.460;2022-10-17T03:02:48;101691.97;;;12.81;94.60
50550;BME280;36505;52.512;13.460;2022-10-17T03:05:18;101686.81;;;12.84;94.23
50550;BME280;36505;52.512;13.460;2022-10-17T03:07:44;101683.09;;;12.79;94.49
50550;BME280;36505;52.512;13.460;2022-10-17T03:10:09;101687.53;;;12.80;94.76
50550;BME280;36505;52.512;13.460;2022-10-17T03:12:35;101689.09;;;12.76;94.83
50550;BME280;36505;52.512;13.460;2022-10-17T03:15:01;101688.84;;;12.77;94.85
50550;BME280;36505;52.512;13.460;2022-10-17T03:17:26;101681.53;;;12.71;95.04
50550;BME280;36505;52.512;13.460;2022-10-17T03:19:51;101694.09;;;12.67;95.13
50550;BME280;36505;52.512;13.460;2022-10-17T03:22:17;101686.44;;;12.69;95.18
50550;BME280;36505;52.512;13.460;2022-10-17T03:24:42;101689.66;;;12.66;95.02
50550;BME280;36505;52.512;13.460;2022-10-17T03:27:07;101701.84;;;12.70;94.83
50550;BME280;36505;52.512;13.460;2022-10-17T03:29:32;101688.94;;;12.71;94.68
50550;BME280;36505;52.512;13.460;2022-10-17T03:31:58;101679.63;;;12.72;94.67
50550;BME280;36505;52.512;13.460;2022-10-17T03:34:23;101682.88;;;12.69;94.72
50550;BME280;36505;52.512;13.460;2022-10-17T03:36:49;101685.63;;;12.69;94.83
50550;BME280;36505;52.512;13.460;2022-10-17T03:39:14;101675.69;;;12.68;95.04
50550;BME280;36505;52.512;13.460;2022-10-17T03:41:39;101675.47;;;12.69;94.89
50550;BME280;36505;52.512;13.460;2022-10-17T03:44:04;101672.56;;;12.64;95.84
50550;BME280;36505;52.512;13.460;2022-10-17T03:46:30;101686.28;;;12.64;96.01
50550;BME280;36505;52.512;13.460;2022-10-17T03:48:55;101676.38;;;12.63;96.51
50550;BME280;36505;52.512;13.460;2022-10-17T03:51:21;101680.81;;;12.64;96.28
50550;BME280;36505;52.512;13.460;2022-10-17T03:53:46;101684.88;;;12.61;96.58
50550;BME280;36505;52.512;13.460;2022-10-17T03:56:14;101679.00;;;12.58;96.27
50550;BME280;36505;52.512;13.460;2022-10-17T03:58:40;101675.19;;;12.59;96.40
50550;BME280;36505;52.512;13.460;2022-10-17T04:01:07;101675.19;;;12.59;96.41
50550;BME280;36505;52.512;13.460;2022-10-17T04:03:33;101664.91;;;12.54;97.13
50550;BME280;36505;52.512;13.460;2022-10-17T04:05:59;101668.50;;;12.55;97.51
50550;BME280;36505;52.512;13.460;2022-10-17T04:08:25;101675.06;;;12.54;97.98
50550;BME280;36505;52.512;13.460;2022-10-17T04:10:51;101674.00;;;12.55;98.36
50550;BME280;36505;52.512;13.460;2022-10-17T04:13:16;101663.69;;;12.50;98.42
50550;BME280;36505;52.512;13.460;2022-10-17T04:15:41;101657.34;;;12.50;98.64
50550;BME280;36505;52.512;13.460;2022-10-17T04:18:06;101660.59;;;12.47;98.92
50550;BME280;36505;52.512;13.460;2022-10-17T04:20:34;101650.66;;;12.46;99.13
50550;BME280;36505;52.512;13.460;2022-10-17T04:22:59;101654.03;;;12.48;99.81
50550;BME280;36505;52.512;13.460;2022-10-17T04:25:24;101656.03;;;12.41;100.00
50550;BME280;36505;52.512;13.460;2022-10-17T04:27:50;101663.56;;;12.45;100.00
50550;BME280;36505;52.512;13.460;2022-10-17T04:30:15;101662.94;;;12.43;100.00
50550;BME280;36505;52.512;13.460;2022-10-17T04:32:41;101657.22;;;12.45;100.00
50550;BME280;36505;52.512;13.460;2022-10-17T04:35:07;101657.22;;;12.45;100.00
50550;BME280;36505;52.512;13.460;2022-10-17T04:37:32;101663.22;;;12.42;100.00
50550;BME280;36505;52.512;13.460;2022-10-17T04:39:58;101655.53;;;12.44;100.00
50550;BME280;36505;52.512;13.460;2022-10-17T04:42:23;101656.25;;;12.39;100.00
50550;BME280;36505;52.512;13.460;2022-10-17T04:44:48;101650.28;;;12.42;100.00
50550;BME280;36505;52.512;13.460;2022-10-17T04:47:14;101656.50;;;12.38;100.00
50550;BME280;36505;52.512;13.460;2022-10-17T04:49:39;101657.56;;;12.37;100.00
50550;BME280;36505;52.512;13.460;2022-10-17T04:52:04;101660.06;;;12.38;100.00
50550;BME280;36505;52.512;13.460;2022-10-17T04:54:30;101654.91;;;12.30;100.00
50550;BME280;36505;52.512;13.460;2022-10-17T04:56:55;101661.38;;;12.36;100.00
50550;BME280;36505;52.512;13.460;2022-10-17T04:59:20;101660.53;;;12.35;100.00
50550;BME280;36505;52.512;13.460;2022-10-17T05:01:47;101661.25;;;12.31;100.00
50550;BME280;36505;52.512;13.460;2022-10-17T05:04:13;101663.75;;;12.32;100.00
50550;BME280;36505;52.512;13.460;2022-10-17T05:06:38;101648.00;;;12.27;100.00
50550;BME280;36505;52.512;13.460;2022-10-17T05:09:03;101659.09;;;12.33;100.00
50550;BME280;36505;52.512;13.460;2022-10-17T05:11:29;101657.66;;;12.30;100.00
50550;BME280;36505;52.512;13.460;2022-10-17T05:13:56;101662.91;;;12.32;100.00
50550;BME280;36505;52.512;13.460;2022-10-17T05:16:23;101662.09;;;12.31;100.00
50550;BME280;36505;52.512;13.460;2022-10-17T05:18:49;101665.66;;;12.32;100.00
50550;BME280;36505;52.512;13.460;2022-10-17T05:21:15;101655.75;;;12.31;100.00
50550;BME280;36505;52.512;13.460;2022-10-17T05:23:40;101662.31;;;12.30;100.00
50550;BME280;36505;52.512;13.460;2022-10-17T05:26:06;101666.13;;;12.28;100.00
50550;BME280;36505;52.512;13.460;2022-10-17T05:28:31;101675.44;;;12.27;100.00
50550;BME280;36505;52.512;13.460;2022-10-17T05:31:04;101663.97;;;12.31;100.00
50550;BME280;36505;52.512;13.460;2022-10-17T05:33:30;101667.78;;;12.30;100.00
50550;BME280;36505;52.512;13.460;2022-10-17T05:35:57;101663.38;;;12.28;100.00
50550;BME280;36505;52.512;13.460;2022-10-17T05:38:22;101663.75;;;12.32;100.00
50550;BME280;36505;52.512;13.460;2022-10-17T05:40:48;101670.44;;;12.36;100.00
50550;BME280;36505;52.512;13.460;2022-10-17T05:43:13;101660.31;;;12.37;100.00
50550;BME280;36505;52.512;13.460;2022-10-17T05:45:39;101657.56;;;12.37;100.00
50550;BME280;36505;52.512;13.460;2022-10-17T05:48:04;101661.97;;;12.38;100.00
50550;BME280;36505;52.512;13.460;2022-10-17T05:50:30;101670.84;;;12.40;100.00
50550;BME280;36505;52.512;13.460;2022-10-17T05:52:56;101656.88;;;12.41;100.00
50550;BME280;36505;52.512;13.460;2022-10-17T05:55:21;101661.03;;;12.44;100.00
50550;BME280;36505;52.512;13.460;2022-10-17T05:57:47;101668.81;;;12.47;100.00
50550;BME280;36505;52.512;13.460;2022-10-17T06:00:13;101678.97;;;12.46;100.00
50550;BME280;36505;52.512;13.460;2022-10-17T06:02:38;101677.94;;;12.59;100.00
50550;BME280;36505;52.512;13.460;2022-10-17T06:05:04;101678.78;;;12.59;100.00
50550;BME280;36505;52.512;13.460;2022-10-17T06:07:29;101677.47;;;12.62;100.00
50550;BME280;36505;52.512;13.460;2022-10-17T06:09:55;101679.72;;;12.65;100.00
50550;BME280;36505;52.512;13.460;2022-10-17T06:12:22;101688.09;;;12.70;100.00
50550;BME280;36505;52.512;13.460;2022-10-17T06:14:47;101695.78;;;12.91;100.00
50550;BME280;36505;52.512;13.460;2022-10-17T06:17:12;101702.97;;;13.04;100.00
50550;BME280;36505;52.512;13.460;2022-10-17T06:19:38;101705.31;;;13.30;99.04
50550;BME280;36505;52.512;13.460;2022-10-17T06:22:05;101700.16;;;13.45;97.11
50550;BME280;36505;52.512;13.460;2022-10-17T06:24:30;101710.16;;;13.75;95.45
50550;BME280;36505;52.512;13.460;2022-10-17T06:26:55;101713.13;;;13.97;94.56
50550;BME280;36505;52.512;13.460;2022-10-17T06:29:21;101713.13;;;13.97;93.33
50550;BME280;36505;52.512;13.460;2022-10-17T06:31:47;101713.72;;;14.27;91.67
50550;BME280;36505;52.512;13.460;2022-10-17T06:34:12;101720.31;;;14.38;90.48
50550;BME280;36505;52.512;13.460;2022-10-17T06:36:38;101715.38;;;14.40;89.67
50550;BME280;36505;52.512;13.460;2022-10-17T06:39:03;101726.69;;;14.38;89.62
50550;BME280;36505;52.512;13.460;2022-10-17T06:41:28;101727.38;;;14.45;89.64
50550;BME280;36505;52.512;13.460;2022-10-17T06:43:53;101724.69;;;14.50;89.25
50550;BME280;36505;52.512;13.460;2022-10-17T06:46:19;101715.91;;;14.53;89.02
50550;BME280;36505;52.512;13.460;2022-10-17T06:48:45;101736.50;;;14.62;88.90
50550;BME280;36505;52.512;13.460;2022-10-17T06:51:11;101726.84;;;14.77;88.20
50550;BME280;36505;52.512;13.460;2022-10-17T06:53:38;101734.47;;;14.86;87.25
50550;BME280;36505;52.512;13.460;2022-10-17T06:56:06;101720.50;;;14.93;86.86
50550;BME280;36505;52.512;13.460;2022-10-17T06:58:36;101736.03;;;14.82;87.53
50550;BME280;36505;52.512;13.460;2022-10-17T07:01:10;101727.28;;;15.02;86.69
50550;BME280;36505;52.512;13.460;2022-10-17T07:03:37;101724.03;;;15.05;86.33
50550;BME280;36505;52.512;13.460;2022-10-17T07:06:03;101718.25;;;15.07;86.24
50550;BME280;36505;52.512;13.460;2022-10-17T07:08:28;101721.09;;;15.12;86.01
50550;BME280;36505;52.512;13.460;2022-10-17T07:10:54;101724.00;;;15.22;85.92
50550;BME280;36505;52.512;13.460;2022-10-17T07:13:20;101726.00;;;15.43;84.76
50550;BME280;36505;52.512;13.460;2022-10-17T07:15:45;101730.94;;;15.58;83.91
50550;BME280;36505;52.512;13.460;2022-10-17T07:18:11;101738.88;;;15.71;83.03
50550;BME280;36505;52.512;13.460;2022-10-17T07:20:37;101731.94;;;15.90;82.52
50550;BME280;36505;52.512;13.460;2022-10-17T07:23:03;101743.91;;;16.17;81.11
50550;BME280;36505;52.512;13.460;2022-10-17T07:25:28;101744.63;;;16.30;80.68
50550;BME280;36505;52.512;13.460;2022-10-17T07:27:54;101748.28;;;16.35;80.22
50550;BME280;36505;52.512;13.460;2022-10-17T07:30:20;101749.59;;;16.54;78.93
50550;BME280;36505;52.512;13.460;2022-10-17T07:32:46;101740.47;;;16.76;78.08
50550;BME280;36505;52.512;13.460;2022-10-17T07:35:12;101757.06;;;16.76;78.19
50550;BME280;36505;52.512;13.460;2022-10-17T07:37:37;101747.66;;;17.04;77.11
50550;BME280;36505;52.512;13.460;2022-10-17T07:40:05;101748.50;;;17.41;75.86
50550;BME280;36505;52.512;13.460;2022-10-17T07:42:31;101746.63;;;17.89;74.02
50550;BME280;36505;52.512;13.460;2022-10-17T07:44:57;101754.59;;;18.32;72.15
50550;BME280;36505;52.512;13.460;2022-10-17T07:47:23;101746.97;;;18.80;69.98
50550;BME280;36505;52.512;13.460;2022-10-17T07:49:48;101749.78;;;19.20;67.43
50550;BME280;36505;52.512;13.460;2022-10-17T07:52:15;101743.69;;;19.49;67.08
50550;BME280;36505;52.512;13.460;2022-10-17T07:54:41;101750.72;;;20.21;64.62
50550;BME280;36505;52.512;13.460;2022-10-17T07:57:06;101749.53;;;20.42;63.60
50550;BME280;36505;52.512;13.460;2022-10-17T07:59:33;101753.31;;;21.05;61.37
50550;BME280;36505;52.512;13.460;2022-10-17T08:01:59;101753.16;;;21.59;60.07
50550;BME280;36505;52.512;13.460;2022-10-17T08:04:25;101752.56;;;21.62;58.24
50550;BME280;36505;52.512;13.460;2022-10-17T08:06:51;101743.94;;;22.12;57.73
50550;BME280;36505;52.512;13.460;2022-10-17T08:09:17;101746.72;;;22.54;55.74
50550;BME280;36505;52.512;13.460;2022-10-17T08:11:42;101745.88;;;23.29;54.26
50550;BME280;36505;52.512;13.460;2022-10-17T08:14:08;101737.75;;;23.78;52.63
50550;BME280;36505;52.512;13.460;2022-10-17T08:16:34;101739.19;;;24.44;50.85
50550;BME280;36505;52.512;13.460;2022-10-17T08:18:59;101736.78;;;25.01;49.36
50550;BME280;36505;52.512;13.460;2022-10-17T08:21:25;101743.22;;;25.01;49.24
50550;BME280;36505;52.512;13.460;2022-10-17T08:23:50;101739.41;;;25.19;48.03
50550;BME280;36505;52.512;13.460;2022-10-17T08:26:16;101736.59;;;25.73;47.50
50550;BME280;36505;52.512;13.460;2022-10-17T08:28:41;101745.56;;;26.23;45.80
50550;BME280;36505;52.512;13.460;2022-10-17T08:31:09;101749.00;;;26.59;45.74
50550;BME280;36505;52.512;13.460;2022-10-17T08:33:35;101739.75;;;26.11;45.01
50550;BME280;36505;52.512;13.460;2022-10-17T08:36:02;101743.50;;;25.67;46.55
50550;BME280;36505;52.512;13.460;2022-10-17T08:38:29;101738.13;;;25.03;47.97
50550;BME280;36505;52.512;13.460;2022-10-17T08:41:00;101730.97;;;25.64;46.81
50550;BME280;36505;52.512;13.460;2022-10-17T08:46:35;101731.69;;;27.00;43.25
50550;BME280;36505;52.512;13.460;2022-10-17T08:49:03;101728.84;;;26.66;44.25
50550;BME280;36505;52.512;13.460;2022-10-17T08:51:33;101729.16;;;26.64;44.18
50550;BME280;36505;52.512;13.460;2022-10-17T08:56:41;101730.13;;;27.37;43.52
50550;BME280;36505;52.512;13.460;2022-10-17T08:59:17;101726.34;;;27.25;42.94
50550;BME280;36505;52.512;13.460;2022-10-17T09:01:52;101725.88;;;27.86;41.11
50550;BME280;36505;52.512;13.460;2022-10-17T09:09:54;101728.78;;;27.99;41.08
50550;BME280;36505;52.512;13.460;2022-10-17T09:12:41;101728.75;;;28.16;41.02
50550;BME280;36505;52.512;13.460;2022-10-17T09:15:28;101730.38;;;27.79;41.26
50550;BME280;36505;52.512;13.460;2022-10-17T09:17:57;101733.75;;;28.02;40.93
50550;BME280;36505;52.512;13.460;2022-10-17T09:20:29;101743.28;;;27.80;41.00
50550;BME280;36505;52.512;13.460;2022-10-17T09:22:59;101734.19;;;27.74;41.54
50550;BME280;36505;52.512;13.460;2022-10-17T09:25:26;101732.56;;;28.11;40.37
50550;BME280;36505;52.512;13.460;2022-10-17T09:28:03;101732.69;;;28.23;40.83
50550;BME280;36505;52.512;13.460;2022-10-17T09:30:41;101735.16;;;28.46;40.03
50550;BME280;36505;52.512;13.460;2022-10-17T09:33:15;101732.91;;;28.39;39.86
50550;BME280;36505;52.512;13.460;2022-10-17T09:35:42;101728.63;;;28.33;40.03
50550;BME280;36505;52.512;13.460;2022-10-17T09:38:19;101718.56;;;28.53;39.62
50550;BME280;36505;52.512;13.460;2022-10-17T09:40:52;101715.72;;;28.32;39.84
50550;BME280;36505;52.512;13.460;2022-10-17T09:43:19;101718.41;;;28.79;40.18
50550;BME280;36505;52.512;13.460;2022-10-17T09:46:31;101719.41;;;28.95;39.11
50550;BME280;36505;52.512;13.460;2022-10-17T09:48:45;101707.81;;;28.46;39.44
50550;BME280;36505;52.512;13.460;2022-10-17T09:51:13;101712.31;;;28.68;39.47
50550;BME280;36505;52.512;13.460;2022-10-17T09:53:43;101718.03;;;28.80;39.28
50550;BME280;36505;52.512;13.460;2022-10-17T09:56:15;101712.28;;;28.77;38.25
50550;BME280;36505;52.512;13.460;2022-10-17T09:58:49;101704.28;;;28.58;39.09
50550;BME280;36505;52.512;13.460;2022-10-17T10:03:40;101710.81;;;28.71;39.49
50550;BME280;36505;52.512;13.460;2022-10-17T10:06:13;101711.56;;;28.80;39.25
50550;BME280;36505;52.512;13.460;2022-10-17T10:08:52;101705.19;;;29.24;38.54
50550;BME280;36505;52.512;13.460;2022-10-17T10:11:23;101706.69;;;29.42;38.58
50550;BME280;36505;52.512;13.460;2022-10-17T10:13:49;101706.41;;;29.68;37.65
50550;BME280;36505;52.512;13.460;2022-10-17T10:16:19;101697.13;;;29.80;37.47
50550;BME280;36505;52.512;13.460;2022-10-17T10:18:46;101691.50;;;29.92;36.30
50550;BME280;36505;52.512;13.460;2022-10-17T10:21:16;101701.78;;;29.76;37.25
50550;BME280;36505;52.512;13.460;2022-10-17T10:23:44;101711.16;;;29.43;37.51
50550;BME280;36505;52.512;13.460;2022-10-17T10:26:26;101704.41;;;29.03;38.16
50550;BME280;36505;52.512;13.460;2022-10-17T10:29:04;101710.84;;;28.41;39.35
50550;BME280;36505;52.512;13.460;2022-10-17T10:31:33;101711.38;;;27.67;41.02
50550;BME280;36505;52.512;13.460;2022-10-17T10:34:03;101707.59;;;27.63;41.10
50550;BME280;36505;52.512;13.460;2022-10-17T10:36:50;101716.38;;;27.44;41.52
50550;BME280;36505;52.512;13.460;2022-10-17T10:42:15;101712.78;;;27.27;42.65
50550;BME280;36505;52.512;13.460;2022-10-17T10:44:41;101708.63;;;27.41;42.61
50550;BME280;36505;52.512;13.460;2022-10-17T10:47:20;101709.38;;;27.76;41.67
50550;BME280;36505;52.512;13.460;2022-10-17T10:49:46;101703.13;;;27.62;40.89
50550;BME280;36505;52.512;13.460;2022-10-17T10:52:42;101706.78;;;27.54;41.57
50550;BME280;36505;52.512;13.460;2022-10-17T10:55:18;101701.84;;;27.34;40.78
50550;BME280;36505;52.512;13.460;2022-10-17T10:57:45;101703.03;;;27.24;41.51
50550;BME280;36505;52.512;13.460;2022-10-17T11:00:16;101703.22;;;27.10;41.87
50550;BME280;36505;52.512;13.460;2022-10-17T11:05:51;101691.81;;;26.81;42.51
50550;BME280;36505;52.512;13.460;2022-10-17T11:08:33;101702.03;;;26.43;42.24
50550;BME280;36505;52.512;13.460;2022-10-17T11:13:53;101691.41;;;26.22;43.82
50550;BME280;36505;52.512;13.460;2022-10-17T11:16:36;101689.19;;;26.02;43.65
50550;BME280;36505;52.512;13.460;2022-10-17T11:19:34;101692.75;;;25.77;44.57
50550;BME280;36505;52.512;13.460;2022-10-17T11:27:36;101677.50;;;25.07;46.95
50550;BME280;36505;52.512;13.460;2022-10-17T11:30:03;101675.59;;;24.94;47.03
50550;BME280;36505;52.512;13.460;2022-10-17T11:32:43;101665.00;;;24.69;47.79
50550;BME280;36505;52.512;13.460;2022-10-17T11:35:20;101666.53;;;24.75;48.75
50550;BME280;36505;52.512;13.460;2022-10-17T11:37:57;101662.25;;;24.77;47.84
50550;BME280;36505;52.512;13.460;2022-10-17T11:40:32;101663.78;;;24.61;48.33
50550;BME280;36505;52.512;13.460;2022-10-17T11:43:02;101669.72;;;24.46;48.78
50550;BME280;36505;52.512;13.460;2022-10-17T11:45:48;101667.91;;;24.28;48.74
50550;BME280;36505;52.512;13.460;2022-10-17T11:48:24;101659.59;;;24.09;49.32
50550;BME280;36505;52.512;13.460;2022-10-17T11:50:59;101665.53;;;24.08;49.41
50550;BME280;36505;52.512;13.460;2022-10-17T11:53:37;101668.13;;;24.04;49.69
50550;BME280;36505;52.512;13.460;2022-10-17T11:56:04;101652.59;;;23.84;49.24
50550;BME280;36505;52.512;13.460;2022-10-17T11:58:53;101656.34;;;23.80;49.65
50550;BME280;36505;52.512;13.460;2022-10-17T12:11:58;101662.00;;;23.61;50.24
50550;BME280;36505;52.512;13.460;2022-10-17T12:17:04;101658.28;;;23.52;50.12
50550;BME280;36505;52.512;13.460;2022-10-17T12:19:34;101662.81;;;23.48;50.32
50550;BME280;36505;52.512;13.460;2022-10-17T12:22:18;101656.41;;;23.47;50.39
50550;BME280;36505;52.512;13.460;2022-10-17T12:24:53;101660.34;;;23.46;50.44
50550;BME280;36505;52.512;13.460;2022-10-17T12:30:02;101652.56;;;23.43;50.55
50550;BME280;36505;52.512;13.460;2022-10-17T12:32:29;101647.59;;;23.40;51.17
50550;BME280;36505;52.512;13.460;2022-10-17T12:34:56;101638.38;;;23.40;50.87
50550;BME280;36505;52.512;13.460;2022-10-17T12:48:10;101639.72;;;23.42;51.78
50550;BME280;36505;52.512;13.460;2022-10-17T12:53:34;101630.41;;;23.47;51.77
50550;BME280;36505;52.512;13.460;2022-10-17T12:56:02;101643.03;;;23.44;52.16
50550;BME280;36505;52.512;13.460;2022-10-17T12:58:28;101644.69;;;23.45;51.09
50550;BME280;36505;52.512;13.460;2022-10-17T13:00:56;101638.88;;;23.42;50.94
50550;BME280;36505;52.512;13.460;2022-10-17T13:03:27;101640.34;;;23.39;50.42
50550;BME280;36505;52.512;13.460;2022-10-17T13:05:55;101626.97;;;23.36;50.86
50550;BME280;36505;52.512;13.460;2022-10-17T13:08:28;101630.72;;;23.32;50.52
50550;BME280;36505;52.512;13.460;2022-10-17T13:10:55;101624.69;;;23.24;50.81
50550;BME280;36505;52.512;13.460;2022-10-17T13:13:23;101625.53;;;23.25;50.90
50550;BME280;36505;52.512;13.460;2022-10-17T13:15:52;101619.22;;;23.19;51.16
50550;BME280;36505;52.512;13.460;2022-10-17T13:18:24;101613.91;;;23.18;50.96
50550;BME280;36505;52.512;13.460;2022-10-17T13:23:27;101613.50;;;23.11;51.37
50550;BME280;36505;52.512;13.460;2022-10-17T13:26:14;101631.91;;;23.12;51.89
50550;BME280;36505;52.512;13.460;2022-10-17T13:28:41;101634.47;;;23.08;51.96
50550;BME280;36505;52.512;13.460;2022-10-17T13:31:12;101630.56;;;23.09;51.63
50550;BME280;36505;52.512;13.460;2022-10-17T13:33:55;101629.81;;;23.04;51.47
50550;BME280;36505;52.512;13.460;2022-10-17T13:36:21;101631.19;;;23.06;51.83
50550;BME280;36505;52.512;13.460;2022-10-17T13:38:46;101626.41;;;23.07;51.65
50550;BME280;36505;52.512;13.460;2022-10-17T13:41:13;101623.09;;;23.05;51.68
50550;BME280;36505;52.512;13.460;2022-10-17T13:43:40;101629.53;;;23.05;51.68
50550;BME280;36505;52.512;13.460;2022-10-17T13:46:06;101624.78;;;23.06;51.53
50550;BME280;36505;52.512;13.460;2022-10-17T13:48:35;101626.72;;;23.05;51.78
50550;BME280;36505;52.512;13.460;2022-10-17T13:51:03;101626.41;;;23.07;51.79
50550;BME280;36505;52.512;13.460;2022-10-17T13:53:34;101621.63;;;23.07;52.00
50550;BME280;36505;52.512;13.460;2022-10-17T13:56:04;101624.97;;;23.09;51.89
50550;BME280;36505;52.512;13.460;2022-10-17T13:58:42;101631.91;;;23.12;51.91
50550;BME280;36505;52.512;13.460;2022-10-17T14:01:08;101631.19;;;23.06;51.84
50550;BME280;36505;52.512;13.460;2022-10-17T14:03:34;101631.19;;;23.06;52.16
50550;BME280;36505;52.512;13.460;2022-10-17T14:06:03;101623.41;;;23.03;51.80
50550;BME280;36505;52.512;13.460;2022-10-17T14:08:31;101636.84;;;23.01;51.94
50550;BME280;36505;52.512;13.460;2022-10-17T14:10:58;101630.41;;;23.01;52.03
50550;BME280;36505;52.512;13.460;2022-10-17T14:13:29;101639.72;;;22.96;52.21
50550;BME280;36505;52.512;13.460;2022-10-17T14:15:59;101632.47;;;22.95;52.01